Time;durP1;ratioP1;P1;durP2;ratioP2;P2;SDS_P1;SDS_P2;PMS_P1;PMS_P2;Temp;Humidity;BMP_temperature;BMP_pressure;BME280_temperature;BME280_humidity;BME280_pressure;Samples;Min_cycle;Max_cycle;Signal;HPM_P1;HPM_P2
2023/05/14 00:02:08;;;;;;;1.52;0.70;;;22.50;75.50;;;;;;4989815;28;20403;-69
2023/05/14 00:04:35;;;;;;;1.52;0.93;;;22.50;75.50;;;;;;4989092;28;20419;-69
2023/05/14 00:07:02;;;;;;;2.72;0.85;;;22.50;75.50;;;;;;4988380;28;20057;-69
2023/05/14 00:09:30;;;;;;;1.27;0.80;;;22.40;75.40;;;;;;4988589;28;20058;-69
2023/05/14 00:11:57;;;;;;;1.73;0.93;;;22.50;75.40;;;;;;4988499;28;20411;-70
2023/05/14 00:14:24;;;;;;;1.60;0.73;;;22.50;75.40;;;;;;4989731;28;20491;-69
2023/05/14 00:16:51;;;;;;;1.60;0.70;;;22.50;75.40;;;;;;4990169;28;20424;-70
2023/05/14 00:19:18;;;;;;;2.00;1.15;;;22.40;75.40;;;;;;4990043;28;20385;-69
2023/05/14 00:21:45;;;;;;;1.60;0.80;;;22.40;75.30;;;;;;4988110;28;20085;-69
2023/05/14 00:24:12;;;;;;;2.13;1.15;;;22.40;75.30;;;;;;4976624;28;20051;-69
2023/05/14 00:26:41;;;;;;;2.28;0.90;;;22.40;75.30;;;;;;4989831;28;20504;-69
2023/05/14 00:29:08;;;;;;;1.33;0.73;;;22.40;75.30;;;;;;4989724;28;20061;-69
2023/05/14 00:31:35;;;;;;;1.75;0.90;;;22.40;75.30;;;;;;4988685;28;20054;-69
2023/05/14 00:34:02;;;;;;;1.55;0.82;;;22.40;75.40;;;;;;4988399;28;20050;-70
2023/05/14 00:36:30;;;;;;;1.90;1.02;;;22.40;75.30;;;;;;4989771;28;20051;-70
2023/05/14 00:38:57;;;;;;;1.35;0.68;;;22.40;75.30;;;;;;4989947;28;20089;-70
2023/05/14 00:41:23;;;;;;;2.00;0.65;;;22.40;75.30;;;;;;4988714;28;20054;-69
2023/05/14 00:43:52;;;;;;;1.85;1.02;;;22.40;75.30;;;;;;4988381;28;20050;-70
2023/05/14 00:46:19;;;;;;;1.70;0.88;;;22.40;75.30;;;;;;4988466;28;20062;-69
2023/05/14 00:48:46;;;;;;;1.73;0.88;;;22.40;75.30;;;;;;4989463;28;20054;-69
2023/05/14 00:51:14;;;;;;;1.88;1.08;;;22.30;75.20;;;;;;4989147;28;20069;-70
2023/05/14 00:53:41;;;;;;;2.25;1.48;;;22.30;75.20;;;;;;4989341;28;20078;-69
2023/05/14 00:56:09;;;;;;;1.77;0.82;;;22.40;75.30;;;;;;4988340;28;20058;-69
2023/05/14 00:58:36;;;;;;;2.33;1.00;;;22.30;75.20;;;;;;4987749;28;20110;-69
2023/05/14 01:01:05;;;;;;;1.60;1.17;;;22.30;75.20;;;;;;4988496;28;20050;-70
2023/05/14 01:03:32;;;;;;;1.67;0.73;;;22.30;75.20;;;;;;4989257;28;20073;-70
2023/05/14 01:06:06;;;;;;;2.03;0.45;;;22.30;75.20;;;;;;4989916;28;20054;-69
2023/05/14 01:08:40;;;;;;;1.80;0.90;;;22.30;75.20;;;;;;4989140;28;20412;-69
2023/05/14 01:11:12;;;;;;;2.13;1.27;;;22.30;75.20;;;;;;4989809;28;20054;-69
2023/05/14 01:13:51;;;;;;;1.92;0.88;;;22.30;75.20;;;;;;4988191;28;20415;-69
2023/05/14 01:16:20;;;;;;;1.60;1.00;;;22.30;75.20;;;;;;4988009;28;20051;-69
2023/05/14 01:18:50;;;;;;;2.15;1.05;;;22.30;75.10;;;;;;4988235;28;20122;-69
2023/05/14 01:21:35;;;;;;;1.55;0.75;;;22.30;75.10;;;;;;4987751;28;20065;-69
2023/05/14 01:24:03;;;;;;;1.80;0.82;;;22.30;75.10;;;;;;4987909;28;20050;-69
2023/05/14 01:26:30;;;;;;;2.25;1.10;;;22.30;75.10;;;;;;4987441;28;20065;-70
2023/05/14 01:29:03;;;;;;;2.17;1.10;;;22.30;75.10;;;;;;4987658;28;20443;-69
2023/05/14 01:31:34;;;;;;;1.98;1.02;;;22.30;75.10;;;;;;4989086;28;20050;-70
2023/05/14 01:34:03;;;;;;;2.20;0.90;;;22.20;75.00;;;;;;4989268;28;20438;-70
2023/05/14 01:36:32;;;;;;;2.28;0.88;;;22.20;75.00;;;;;;4989537;28;20057;-69
2023/05/14 01:39:01;;;;;;;1.88;0.90;;;22.20;75.00;;;;;;4987895;28;20050;-69
2023/05/14 01:41:29;;;;;;;1.67;0.73;;;22.30;75.00;;;;;;4988218;28;20173;-70
2023/05/14 01:43:57;;;;;;;1.50;0.77;;;22.20;75.00;;;;;;4987638;28;20061;-69
2023/05/14 01:46:24;;;;;;;1.50;0.60;;;22.20;75.00;;;;;;4987991;28;20427;-69
2023/05/14 01:48:51;;;;;;;2.20;1.33;;;22.20;75.00;;;;;;4988962;28;20220;-70
2023/05/14 01:51:18;;;;;;;1.98;0.85;;;22.20;74.90;;;;;;4989176;28;20526;-69
2023/05/14 01:53:46;;;;;;;2.08;0.98;;;22.20;74.90;;;;;;4988645;28;20054;-69
2023/05/14 01:56:13;;;;;;;2.50;0.73;;;22.20;75.00;;;;;;4989124;28;20051;-69
2023/05/14 01:58:40;;;;;;;2.00;0.80;;;22.20;74.90;;;;;;4988599;28;20061;-70
2023/05/14 02:01:07;;;;;;;1.67;0.95;;;22.20;74.90;;;;;;4989095;28;20073;-69
2023/05/14 02:03:35;;;;;;;1.95;1.05;;;22.20;74.90;;;;;;4989444;28;20050;-69
2023/05/14 02:06:02;;;;;;;1.90;1.00;;;22.20;74.90;;;;;;4992428;28;20681;-69
2023/05/14 02:08:29;;;;;;;2.28;1.20;;;22.10;74.80;;;;;;4991890;28;20051;-69
2023/05/14 02:10:57;;;;;;;1.70;0.90;;;22.20;74.90;;;;;;4991105;28;20475;-69
2023/05/14 02:13:25;;;;;;;2.13;1.00;;;22.20;75.40;;;;;;4990685;28;20154;-70
2023/05/14 02:15:52;;;;;;;1.63;0.95;;;22.10;74.80;;;;;;4991986;28;20065;-69
2023/05/14 02:18:19;;;;;;;1.50;0.80;;;22.10;75.40;;;;;;4991934;28;20054;-69
2023/05/14 02:20:46;;;;;;;1.60;0.70;;;22.10;74.80;;;;;;4992411;28;20113;-69
2023/05/14 02:23:13;;;;;;;2.00;1.13;;;22.20;74.80;;;;;;4992128;28;20057;-69
2023/05/14 02:25:40;;;;;;;1.77;1.05;;;22.10;74.70;;;;;;4991695;28;20054;-70
2023/05/14 02:28:09;;;;;;;1.75;0.80;;;22.10;74.70;;;;;;4991684;28;20047;-69
2023/05/14 02:30:36;;;;;;;2.30;1.30;;;22.10;74.70;;;;;;4991995;28;20050;-69
2023/05/14 02:33:03;;;;;;;1.92;0.90;;;22.10;74.70;;;;;;4991790;28;20114;-69
2023/05/14 02:35:29;;;;;;;2.08;1.30;;;22.10;74.70;;;;;;4992037;28;20067;-70
2023/05/14 02:37:58;;;;;;;2.25;1.08;;;22.10;74.70;;;;;;4991754;28;20054;-70
2023/05/14 02:40:25;;;;;;;1.45;0.60;;;22.10;74.70;;;;;;4989905;28;20057;-69
2023/05/14 02:42:52;;;;;;;2.08;1.00;;;22.10;74.70;;;;;;4977643;28;20404;-69
2023/05/14 02:45:20;;;;;;;2.00;1.13;;;22.10;74.60;;;;;;4990759;28;20738;-70
2023/05/14 02:47:47;;;;;;;1.80;0.88;;;22.10;74.60;;;;;;4990220;28;20062;-69
2023/05/14 02:50:14;;;;;;;1.83;0.93;;;22.10;74.60;;;;;;4978472;28;20393;-69
2023/05/14 02:52:41;;;;;;;1.67;1.02;;;22.10;74.60;;;;;;4991651;28;20409;-69
2023/05/14 02:55:10;;;;;;;2.50;1.40;;;22.10;74.60;;;;;;4987305;28;20514;-69
2023/05/14 02:57:37;;;;;;;1.55;0.80;;;22.10;74.60;;;;;;4990269;28;20513;-70
2023/05/14 03:00:05;;;;;;;1.77;0.93;;;22.00;74.50;;;;;;4989813;28;20522;-69
2023/05/14 03:02:34;;;;;;;2.05;0.93;;;22.00;74.60;;;;;;4990006;28;20054;-69
2023/05/14 03:05:01;;;;;;;1.65;0.95;;;22.00;74.50;;;;;;4990029;28;20054;-69
2023/05/14 03:07:28;;;;;;;2.28;0.90;;;22.00;74.50;;;;;;4990229;28;20137;-69
2023/05/14 03:09:55;;;;;;;1.73;0.93;;;22.00;74.50;;;;;;4989890;28;20061;-69
2023/05/14 03:12:22;;;;;;;1.85;0.82;;;22.00;74.50;;;;;;4990665;28;20050;-69
2023/05/14 03:14:49;;;;;;;1.88;0.93;;;22.00;74.50;;;;;;4989914;28;20057;-69
2023/05/14 03:17:16;;;;;;;1.80;0.95;;;22.00;74.50;;;;;;4985483;28;20492;-69
2023/05/14 03:19:45;;;;;;;2.65;0.90;;;22.00;74.50;;;;;;4986278;28;20469;-69
2023/05/14 03:22:12;;;;;;;1.70;0.70;;;22.00;74.40;;;;;;4990188;28;20046;-70
2023/05/14 03:24:39;;;;;;;2.35;0.98;;;22.00;74.40;;;;;;4991109;28;20053;-69
2023/05/14 03:27:06;;;;;;;1.75;0.90;;;22.00;74.40;;;;;;4989893;28;20054;-69
2023/05/14 03:29:33;;;;;;;1.65;1.00;;;22.00;74.40;;;;;;4990633;28;20046;-69
2023/05/14 03:32:00;;;;;;;1.83;0.70;;;22.00;74.40;;;;;;4990215;28;20050;-70
2023/05/14 03:34:27;;;;;;;1.80;0.90;;;22.00;74.40;;;;;;4989843;28;20054;-69
2023/05/14 03:36:57;;;;;;;1.85;0.75;;;22.00;74.40;;;;;;4991095;28;20537;-70
2023/05/14 03:39:24;;;;;;;1.60;1.23;;;22.00;74.40;;;;;;4991176;28;20061;-70
2023/05/14 03:41:51;;;;;;;1.80;0.85;;;22.00;74.40;;;;;;4989942;28;20042;-70
2023/05/14 03:44:18;;;;;;;1.65;0.77;;;22.00;74.30;;;;;;4990964;28;20051;-69
2023/05/14 03:46:45;;;;;;;1.95;1.05;;;21.90;74.30;;;;;;4990793;28;20074;-69
2023/05/14 03:49:11;;;;;;;1.77;1.02;;;21.90;74.30;;;;;;4990586;28;20056;-70
2023/05/14 03:51:39;;;;;;;1.30;0.55;;;22.00;74.30;;;;;;4989565;28;20077;-70
2023/05/14 03:54:07;;;;;;;1.95;1.10;;;21.90;74.20;;;;;;4983560;28;20051;-70
2023/05/14 03:56:34;;;;;;;2.00;1.23;;;21.90;74.20;;;;;;4984294;28;20050;-69
2023/05/14 03:59:01;;;;;;;2.40;0.93;;;21.90;74.20;;;;;;4990785;28;20038;-70
2023/05/14 04:01:28;;;;;;;2.10;0.98;;;21.90;74.20;;;;;;4989290;28;20054;-70
2023/05/14 04:03:55;;;;;;;2.00;1.15;;;21.90;74.20;;;;;;4990300;28;20423;-69
2023/05/14 04:06:22;;;;;;;3.05;1.00;;;21.90;74.20;;;;;;4989159;28;20054;-69
2023/05/14 04:08:49;;;;;;;2.00;1.02;;;21.90;74.20;;;;;;4989998;28;20070;-69
2023/05/14 04:11:17;;;;;;;1.50;0.60;;;21.90;74.20;;;;;;4990508;28;20058;-70
2023/05/14 04:13:45;;;;;;;1.90;0.80;;;21.90;74.20;;;;;;4988982;28;20054;-70
2023/05/14 04:16:12;;;;;;;1.30;0.80;;;21.90;74.10;;;;;;4990023;28;20582;-69
2023/05/14 04:18:39;;;;;;;1.98;1.00;;;21.90;74.20;;;;;;4990273;28;20538;-69
2023/05/14 04:21:06;;;;;;;2.00;1.23;;;21.90;74.10;;;;;;4989810;28;20058;-70
2023/05/14 04:23:33;;;;;;;1.63;1.00;;;21.90;74.10;;;;;;4988099;28;20065;-69
2023/05/14 04:26:00;;;;;;;1.63;0.70;;;21.80;74.10;;;;;;4984014;28;20451;-69
2023/05/14 04:28:28;;;;;;;2.33;0.90;;;21.90;74.20;;;;;;4988401;28;20517;-70
2023/05/14 04:30:55;;;;;;;1.90;0.90;;;21.80;74.10;;;;;;4988416;28;20059;-69
2023/05/14 04:33:22;;;;;;;2.15;0.90;;;21.80;74.10;;;;;;4990243;28;20054;-70
2023/05/14 04:35:49;;;;;;;1.60;0.70;;;21.90;74.10;;;;;;4988470;28;20058;-70
2023/05/14 04:38:16;;;;;;;2.47;0.90;;;21.90;74.10;;;;;;4989556;28;20050;-69
2023/05/14 04:40:43;;;;;;;1.98;0.80;;;21.80;74.00;;;;;;4974453;28;20058;-70
2023/05/14 04:43:10;;;;;;;1.50;0.52;;;21.80;74.00;;;;;;4970789;28;20045;-69
2023/05/14 04:45:39;;;;;;;2.25;0.90;;;21.80;74.00;;;;;;4972324;28;20061;-69
2023/05/14 04:48:07;;;;;;;2.05;0.77;;;21.80;74.00;;;;;;4989668;28;20054;-69
2023/05/14 04:50:34;;;;;;;2.20;0.82;;;21.80;74.00;;;;;;4989336;28;20135;-69
2023/05/14 04:53:02;;;;;;;2.40;0.80;;;21.80;74.00;;;;;;4988579;28;20060;-69
2023/05/14 04:55:29;;;;;;;1.88;1.20;;;21.80;74.00;;;;;;4989168;28;20495;-70
2023/05/14 04:57:56;;;;;;;1.92;0.73;;;21.80;74.00;;;;;;4989307;28;20419;-69
2023/05/14 05:00:23;;;;;;;1.88;0.98;;;21.80;73.90;;;;;;4988117;28;20058;-69
2023/05/14 05:02:51;;;;;;;1.77;0.90;;;21.80;74.00;;;;;;4988452;28;20054;-69
2023/05/14 05:05:18;;;;;;;1.70;0.80;;;21.80;73.90;;;;;;4987583;28;20054;-69
2023/05/14 05:07:45;;;;;;;1.60;0.90;;;21.80;73.90;;;;;;4989594;28;20507;-69
2023/05/14 05:10:12;;;;;;;1.70;0.77;;;21.80;73.90;;;;;;4989340;28;20423;-69
2023/05/14 05:12:39;;;;;;;2.10;1.00;;;21.80;73.90;;;;;;4987973;28;20050;-69
2023/05/14 05:15:08;;;;;;;1.70;0.65;;;21.80;73.90;;;;;;4983774;28;20065;-69
2023/05/14 05:17:35;;;;;;;1.50;0.88;;;21.80;73.90;;;;;;4988150;28;20411;-69
2023/05/14 05:20:07;;;;;;;1.55;0.90;;;21.80;73.90;;;;;;4988381;28;20054;-70
2023/05/14 05:22:34;;;;;;;1.95;0.60;;;21.80;73.90;;;;;;4989577;28;20565;-70
2023/05/14 05:25:04;;;;;;;1.63;0.88;;;21.80;73.80;;;;;;4989622;28;20048;-69
2023/05/14 05:27:31;;;;;;;1.52;0.70;;;21.80;73.80;;;;;;4987803;28;20566;-69
2023/05/14 05:29:58;;;;;;;1.60;0.93;;;21.80;73.80;;;;;;4989268;28;20077;-69
2023/05/14 05:32:25;;;;;;;2.40;0.82;;;21.80;73.80;;;;;;4989305;28;20132;-70
2023/05/14 05:34:52;;;;;;;1.40;0.70;;;21.80;73.80;;;;;;4989835;28;20054;-69
2023/05/14 05:37:20;;;;;;;1.85;0.90;;;21.80;73.80;;;;;;4989538;28;20054;-69
2023/05/14 05:39:47;;;;;;;2.70;1.00;;;21.80;73.80;;;;;;4992473;28;20050;-69
2023/05/14 05:42:14;;;;;;;1.42;0.60;;;21.80;73.80;;;;;;4991895;28;20602;-69
2023/05/14 05:44:41;;;;;;;1.30;0.70;;;21.80;73.70;;;;;;4992509;28;20483;-69
2023/05/14 05:47:08;;;;;;;1.88;0.95;;;21.80;73.70;;;;;;4991483;28;20547;-69
2023/05/14 05:49:36;;;;;;;1.38;0.73;;;21.80;73.80;;;;;;4992991;28;20058;-69
2023/05/14 05:52:03;;;;;;;1.58;0.70;;;21.80;73.70;;;;;;4990475;28;20046;-69
2023/05/14 05:54:32;;;;;;;1.95;0.80;;;21.80;73.80;;;;;;4980187;28;20120;-69
2023/05/14 05:56:59;;;;;;;1.70;1.00;;;21.80;73.80;;;;;;4987794;28;20046;-69
2023/05/14 05:59:26;;;;;;;1.90;0.95;;;21.80;73.70;;;;;;4992422;28;20530;-69
2023/05/14 06:01:53;;;;;;;1.27;0.52;;;21.80;73.70;;;;;;4991391;28;20051;-69
2023/05/14 06:04:20;;;;;;;1.73;0.88;;;21.80;73.70;;;;;;4991426;28;20530;-70
2023/05/14 06:06:47;;;;;;;1.67;0.77;;;21.80;73.70;;;;;;4991359;28;20054;-70
2023/05/14 06:09:14;;;;;;;2.53;0.90;;;21.80;73.70;;;;;;4991080;28;20062;-69
2023/05/14 06:11:43;;;;;;;1.55;0.80;;;21.80;73.70;;;;;;4992322;28;20057;-70
2023/05/14 06:14:10;;;;;;;1.75;0.63;;;21.80;73.80;;;;;;4990907;28;20057;-69
2023/05/14 06:16:37;;;;;;;2.03;0.70;;;21.80;73.70;;;;;;4990910;28;20054;-69
2023/05/14 06:19:04;;;;;;;1.52;0.85;;;21.80;73.70;;;;;;4992486;28;20046;-69
2023/05/14 06:21:31;;;;;;;1.30;0.85;;;21.80;73.70;;;;;;4992156;28;20054;-69
2023/05/14 06:23:58;;;;;;;1.50;0.73;;;21.80;73.70;;;;;;4990931;28;20054;-69
2023/05/14 06:26:25;;;;;;;1.50;0.80;;;21.80;73.70;;;;;;4990812;28;20046;-69
2023/05/14 06:28:53;;;;;;;1.60;0.70;;;21.80;73.70;;;;;;4991401;28;20498;-69
2023/05/14 06:31:20;;;;;;;1.92;0.88;;;21.80;73.70;;;;;;4991778;28;20054;-68
2023/05/14 06:33:47;;;;;;;1.73;0.73;;;21.80;73.70;;;;;;4992285;28;20050;-69
2023/05/14 06:36:14;;;;;;;1.83;0.75;;;21.80;73.70;;;;;;4991789;28;20503;-69
2023/05/14 06:38:41;;;;;;;1.35;0.70;;;21.80;73.70;;;;;;4991706;28;20053;-70
2023/05/14 06:41:08;;;;;;;1.67;0.73;;;21.80;73.70;;;;;;4990294;28;20054;-70
2023/05/14 06:43:35;;;;;;;2.30;0.60;;;21.80;73.60;;;;;;4990639;28;20054;-70
2023/05/14 06:46:03;;;;;;;1.30;0.70;;;21.80;73.60;;;;;;4990305;28;20054;-69
2023/05/14 06:48:30;;;;;;;1.58;0.75;;;21.80;73.60;;;;;;4991399;28;20057;-70
2023/05/14 06:50:57;;;;;;;1.50;0.90;;;21.80;73.60;;;;;;4989933;28;20054;-69
2023/05/14 06:53:24;;;;;;;1.95;0.88;;;21.80;73.60;;;;;;4989566;28;20061;-70
2023/05/14 06:55:51;;;;;;;3.25;0.80;;;21.80;73.50;;;;;;4978287;28;20046;-70
2023/05/14 06:58:18;;;;;;;1.65;1.13;;;21.80;73.50;;;;;;4990861;28;20073;-69
2023/05/14 07:00:45;;;;;;;1.90;1.10;;;21.80;73.50;;;;;;4990168;28;20043;-70
2023/05/14 07:03:13;;;;;;;1.90;0.80;;;21.80;73.50;;;;;;4989939;28;20057;-69
2023/05/14 07:05:40;;;;;;;1.50;0.85;;;21.80;73.50;;;;;;4991451;28;20046;-70
2023/05/14 07:08:07;;;;;;;2.17;0.88;;;21.80;73.50;;;;;;4990466;28;20093;-70
2023/05/14 07:10:35;;;;;;;1.52;0.75;;;21.90;73.60;;;;;;4989786;28;20571;-69
2023/05/14 07:13:02;;;;;;;1.85;0.82;;;21.80;73.50;;;;;;4990774;28;20050;-69
2023/05/14 07:15:29;;;;;;;1.73;0.93;;;21.80;73.50;;;;;;4989748;28;20069;-70
2023/05/14 07:17:56;;;;;;;1.90;1.00;;;21.80;73.40;;;;;;4991106;28;20104;-70
2023/05/14 07:20:25;;;;;;;1.60;0.70;;;21.90;73.50;;;;;;4991279;28;20053;-70
2023/05/14 07:22:52;;;;;;;1.88;0.82;;;21.90;73.50;;;;;;4991161;28;20046;-69
2023/05/14 07:25:19;;;;;;;1.65;0.80;;;21.90;73.50;;;;;;4990825;28;20058;-69
2023/05/14 07:27:46;;;;;;;1.60;0.90;;;21.90;73.50;;;;;;4990399;28;20050;-70
2023/05/14 07:30:14;;;;;;;1.40;0.70;;;21.90;73.50;;;;;;4990977;28;20038;-69
2023/05/14 07:32:41;;;;;;;1.50;0.60;;;21.90;73.40;;;;;;4990862;28;20051;-69
2023/05/14 07:35:08;;;;;;;2.13;0.90;;;21.90;73.40;;;;;;4989571;28;20062;-69
2023/05/14 07:37:37;;;;;;;1.13;0.47;;;21.90;73.40;;;;;;4990658;28;20064;-70
2023/05/14 07:40:05;;;;;;;1.50;0.70;;;21.90;73.40;;;;;;4990847;28;20053;-70
2023/05/14 07:42:32;;;;;;;1.85;0.73;;;21.90;73.40;;;;;;4990395;28;20125;-69
2023/05/14 07:44:58;;;;;;;2.03;1.00;;;21.90;73.40;;;;;;4989208;28;20487;-69
2023/05/14 07:47:25;;;;;;;2.45;0.85;;;21.90;73.40;;;;;;4990304;28;20058;-69
2023/05/14 07:49:55;;;;;;;2.05;0.93;;;21.90;73.40;;;;;;4990177;28;20495;-70
2023/05/14 07:52:22;;;;;;;2.95;0.82;;;22.00;73.40;;;;;;4989439;28;20185;-69
2023/05/14 07:54:51;;;;;;;2.17;1.08;;;22.00;73.40;;;;;;4990743;28;20050;-69
2023/05/14 07:57:18;;;;;;;1.55;0.70;;;21.90;73.30;;;;;;4989199;28;20113;-70
2023/05/14 07:59:45;;;;;;;1.45;0.82;;;22.00;73.30;;;;;;4989190;28;20058;-69
2023/05/14 08:02:14;;;;;;;1.70;0.75;;;22.00;73.30;;;;;;4988247;28;20049;-69
2023/05/14 08:04:41;;;;;;;1.63;0.88;;;22.00;73.20;;;;;;4990674;28;20137;-70
2023/05/14 08:07:09;;;;;;;1.50;0.70;;;22.00;73.30;;;;;;4989346;28;20143;-69
2023/05/14 08:09:38;;;;;;;1.65;0.75;;;22.00;73.20;;;;;;4989809;28;20069;-70
2023/05/14 08:12:07;;;;;;;2.20;0.85;;;22.00;73.20;;;;;;4983397;28;20046;-69
2023/05/14 08:14:34;;;;;;;2.10;0.98;;;22.00;73.20;;;;;;4985022;28;20046;-69
2023/05/14 08:17:02;;;;;;;1.73;0.80;;;22.00;73.20;;;;;;4988796;28;20054;-69
2023/05/14 08:19:29;;;;;;;2.05;0.90;;;22.00;73.20;;;;;;4989946;28;20770;-69
2023/05/14 08:21:56;;;;;;;1.60;0.70;;;22.00;73.20;;;;;;4988848;28;20061;-69
2023/05/14 08:24:23;;;;;;;1.45;0.70;;;22.00;73.20;;;;;;4988824;28;20058;-69
2023/05/14 08:26:50;;;;;;;1.60;0.65;;;22.00;73.20;;;;;;4988859;28;20526;-69
2023/05/14 08:29:18;;;;;;;1.60;0.85;;;22.00;73.20;;;;;;4989061;28;20058;-69
2023/05/14 08:31:45;;;;;;;1.70;0.80;;;22.10;73.30;;;;;;4988617;28;20054;-70
2023/05/14 08:34:12;;;;;;;1.70;0.68;;;22.10;73.20;;;;;;4990153;28;20077;-69
2023/05/14 08:36:39;;;;;;;1.20;0.63;;;22.10;73.20;;;;;;4988608;28;20711;-69
2023/05/14 08:39:07;;;;;;;2.35;1.35;;;22.10;73.20;;;;;;4988826;28;20054;-69
2023/05/14 08:41:34;;;;;;;1.55;1.02;;;22.10;73.10;;;;;;4977841;28;20134;-69
2023/05/14 08:44:08;;;;;;;1.55;0.77;;;22.10;73.20;;;;;;4984720;28;20078;-70
2023/05/14 08:46:38;;;;;;;1.90;0.60;;;22.10;73.20;;;;;;4988825;28;20495;-69
2023/05/14 08:49:15;;;;;;;1.30;0.60;;;22.10;73.10;;;;;;4988566;28;20046;-69
2023/05/14 08:51:42;;;;;;;1.42;0.80;;;22.10;73.10;;;;;;4989920;28;20514;-69
2023/05/14 08:54:13;;;;;;;1.40;0.57;;;22.20;73.10;;;;;;4989514;28;20042;-69
2023/05/14 08:56:41;;;;;;;1.48;0.52;;;22.20;73.10;;;;;;4989408;28;20050;-70
2023/05/14 08:59:08;;;;;;;1.38;0.60;;;22.20;73.10;;;;;;4988466;28;20050;-69
2023/05/14 09:01:38;;;;;;;1.73;0.80;;;22.20;73.10;;;;;;4989809;28;20491;-69
2023/05/14 09:04:07;;;;;;;1.50;0.60;;;22.20;73.10;;;;;;4989449;28;20046;-69
2023/05/14 09:06:36;;;;;;;1.50;0.47;;;22.20;73.10;;;;;;4989779;28;20142;-69
2023/05/14 09:09:03;;;;;;;1.60;0.60;;;22.20;73.10;;;;;;4989448;28;20054;-69
2023/05/14 09:11:30;;;;;;;1.65;0.63;;;22.20;73.00;;;;;;4988781;28;20054;-69
2023/05/14 09:13:57;;;;;;;1.50;0.60;;;22.30;73.10;;;;;;4992870;28;20054;-69
2023/05/14 09:16:26;;;;;;;1.50;0.60;;;22.20;73.00;;;;;;4993559;28;20050;-70
2023/05/14 09:18:55;;;;;;;1.80;0.82;;;22.20;73.00;;;;;;4992380;28;20411;-69
2023/05/14 09:21:22;;;;;;;1.50;0.70;;;22.30;73.00;;;;;;4993132;28;20491;-69
2023/05/14 09:23:54;;;;;;;1.98;1.13;;;22.30;73.00;;;;;;4992331;28;20054;-69
2023/05/14 09:26:24;;;;;;;1.85;0.95;;;22.30;73.00;;;;;;4991364;28;20050;-69
2023/05/14 09:28:54;;;;;;;1.65;0.90;;;22.30;73.00;;;;;;4992936;28;20085;-69
2023/05/14 09:31:21;;;;;;;2.05;1.38;;;22.30;72.90;;;;;;4992843;28;20557;-70
2023/05/14 09:33:50;;;;;;;1.77;0.60;;;22.30;72.90;;;;;;4992102;28;20506;-69
2023/05/14 09:36:20;;;;;;;1.42;0.65;;;22.30;72.80;;;;;;4993025;28;20046;-69
2023/05/14 09:38:47;;;;;;;1.60;0.80;;;22.40;72.90;;;;;;4993037;28;20072;-70
2023/05/14 09:41:14;;;;;;;1.45;0.52;;;22.30;72.80;;;;;;4980249;28;20050;-70
2023/05/14 09:43:40;;;;;;;1.38;0.77;;;22.40;72.90;;;;;;4992893;28;20479;-69
2023/05/14 09:46:08;;;;;;;1.30;0.60;;;22.40;72.80;;;;;;4992097;28;20058;-71
2023/05/14 09:48:35;;;;;;;2.60;0.85;;;22.40;72.80;;;;;;4991740;28;20399;-69
2023/05/14 09:51:04;;;;;;;2.03;1.10;;;22.40;72.90;;;;;;4991634;28;20599;-69
2023/05/14 09:53:33;;;;;;;1.65;0.68;;;22.40;72.80;;;;;;4991585;28;20062;-69
2023/05/14 09:56:00;;;;;;;1.48;0.80;;;22.40;72.80;;;;;;4993008;28;20061;-69
2023/05/14 09:58:27;;;;;;;2.05;0.57;;;22.50;72.90;;;;;;4979038;28;20054;-69
2023/05/14 10:00:56;;;;;;;1.38;0.82;;;22.50;72.80;;;;;;4992644;28;20046;-69
2023/05/14 10:03:26;;;;;;;1.60;0.75;;;22.50;72.90;;;;;;4991340;28;20792;-69
2023/05/14 10:05:55;;;;;;;1.88;0.95;;;22.50;72.80;;;;;;4991452;28;20050;-69
2023/05/14 10:08:26;;;;;;;1.63;0.70;;;22.50;72.90;;;;;;4991044;28;20446;-69
2023/05/14 10:10:55;;;;;;;1.20;0.57;;;22.50;72.80;;;;;;4984396;28;20054;-69
2023/05/14 10:13:26;;;;;;;1.58;0.88;;;22.50;72.80;;;;;;4992013;28;20577;-69
2023/05/14 10:16:01;;;;;;;1.50;0.73;;;22.50;72.80;;;;;;4992104;28;20423;-70
2023/05/14 10:18:31;;;;;;;1.48;0.80;;;22.50;72.80;;;;;;4992219;28;20311;-69
2023/05/14 10:21:04;;;;;;;1.50;0.80;;;22.50;72.80;;;;;;4992255;28;20434;-69
2023/05/14 10:23:31;;;;;;;1.55;0.80;;;22.60;72.90;;;;;;4992201;28;20050;-69
2023/05/14 10:26:00;;;;;;;1.42;0.63;;;22.60;72.90;;;;;;4989482;28;20073;-69
2023/05/14 10:28:28;;;;;;;1.42;0.60;;;22.60;72.90;;;;;;4990654;28;20061;-69
2023/05/14 10:30:55;;;;;;;1.42;0.60;;;22.60;72.80;;;;;;4991871;28;20077;-69
2023/05/14 10:33:22;;;;;;;1.27;0.70;;;22.60;72.80;;;;;;4991991;28;20487;-69
2023/05/14 10:35:57;;;;;;;1.25;0.57;;;22.60;72.80;;;;;;4991794;28;20062;-69
2023/05/14 10:38:27;;;;;;;1.60;0.82;;;22.60;72.80;;;;;;4991916;28;20109;-70
2023/05/14 10:41:03;;;;;;;1.42;0.60;;;22.60;72.80;;;;;;4991387;28;20054;-69
2023/05/14 10:43:31;;;;;;;1.20;0.63;;;22.70;72.90;;;;;;4992101;28;20423;-69
2023/05/14 10:45:59;;;;;;;1.40;0.70;;;22.70;72.80;;;;;;4991469;28;20092;-69
2023/05/14 10:48:26;;;;;;;1.85;0.90;;;22.70;72.80;;;;;;4991686;28;20050;-69
2023/05/14 10:50:55;;;;;;;1.45;0.75;;;22.70;72.80;;;;;;4991307;28;20054;-69
2023/05/14 10:53:33;;;;;;;1.60;0.80;;;22.70;72.80;;;;;;4977514;28;20047;-69
2023/05/14 10:56:04;;;;;;;1.40;0.50;;;22.80;72.80;;;;;;4978878;28;20058;-69
2023/05/14 10:58:33;;;;;;;1.90;0.88;;;22.70;72.80;;;;;;4991314;28;20054;-69
2023/05/14 11:01:00;;;;;;;1.95;0.77;;;22.80;72.80;;;;;;4991384;28;20054;-69
2023/05/14 11:03:30;;;;;;;1.67;0.68;;;22.80;72.80;;;;;;4991172;28;20086;-70
2023/05/14 11:05:57;;;;;;;;;;;22.70;72.80;;;;;;4991774;28;20658;-69
2023/05/14 11:08:27;;;;;;;1.33;0.77;;;22.80;72.80;;;;;;4983066;28;19936;-70
2023/05/14 11:10:55;;;;;;;1.50;0.73;;;22.80;72.70;;;;;;4991239;28;20056;-69
2023/05/14 11:13:25;;;;;;;1.98;1.10;;;22.80;72.80;;;;;;4989552;28;20105;-69
2023/05/14 11:15:53;;;;;;;1.90;0.75;;;22.80;72.70;;;;;;4990995;28;20054;-69
2023/05/14 11:18:30;;;;;;;1.50;0.82;;;22.80;72.70;;;;;;4989313;28;20132;-70
2023/05/14 11:20:59;;;;;;;1.20;0.50;;;22.80;72.80;;;;;;4988988;28;20050;-69
2023/05/14 11:23:26;;;;;;;1.25;0.75;;;22.80;72.80;;;;;;4984183;28;20467;-69
2023/05/14 11:25:53;;;;;;;1.52;1.02;;;22.80;72.70;;;;;;4984332;28;20443;-69
2023/05/14 11:28:21;;;;;;;1.30;0.70;;;22.80;73.30;;;;;;4990690;28;20478;-69
2023/05/14 11:30:50;;;;;;;1.40;0.98;;;22.80;72.70;;;;;;4990751;28;20129;-69
2023/05/14 11:33:18;;;;;;;1.90;1.35;;;22.80;72.70;;;;;;4990485;28;20495;-69
2023/05/14 11:35:45;;;;;;;1.83;0.82;;;22.80;72.70;;;;;;4989617;28;20054;-69
2023/05/14 11:38:16;;;;;;;1.83;1.08;;;22.80;72.70;;;;;;4983445;28;20058;-69
2023/05/14 11:40:51;;;;;;;1.67;0.80;;;22.90;72.80;;;;;;4985902;28;20404;-69
2023/05/14 11:43:18;;;;;;;2.25;0.75;;;22.90;72.80;;;;;;4990589;28;20046;-69
2023/05/14 11:45:51;;;;;;;1.73;0.95;;;22.90;72.80;;;;;;4989048;28;20057;-69
2023/05/14 11:48:18;;;;;;;1.63;0.77;;;22.90;72.80;;;;;;4990404;28;20495;-68
2023/05/14 11:50:47;;;;;;;1.42;0.73;;;23.00;72.80;;;;;;4990006;28;20129;-69
2023/05/14 11:53:17;;;;;;;1.58;0.68;;;22.90;72.80;;;;;;4989097;28;20411;-69
2023/05/14 11:55:45;;;;;;;1.83;0.80;;;23.00;72.80;;;;;;4984563;28;20077;-69
2023/05/14 11:58:21;;;;;;;1.50;1.20;;;22.90;72.70;;;;;;5126516;27;20486;-56
2023/05/14 12:00:50;;;;;;;1.60;0.82;;;23.00;72.80;;;;;;5120818;27;20150;-56
2023/05/14 12:03:22;;;;;;;1.60;1.05;;;23.00;72.70;;;;;;5126488;27;20043;-56
2023/05/14 12:05:56;;;;;;;1.92;1.35;;;23.00;72.80;;;;;;5121919;28;20108;-56
2023/05/14 12:08:25;;;;;;;1.38;0.77;;;23.00;72.70;;;;;;5119091;28;20515;-57
2023/05/14 12:10:53;;;;;;;1.77;1.38;;;23.10;72.70;;;;;;5125317;28;20059;-57
2023/05/14 12:13:22;;;;;;;1.50;1.40;;;23.10;72.70;;;;;;5125004;28;20040;-56
2023/05/14 12:15:54;;;;;;;1.85;1.52;;;23.10;72.70;;;;;;5126708;27;20141;-57
2023/05/14 12:18:21;;;;;;;1.58;0.80;;;23.10;72.70;;;;;;5112804;27;20246;-57
2023/05/14 12:20:50;;;;;;;1.92;0.85;;;23.10;72.70;;;;;;5125319;28;20130;-57
2023/05/14 12:23:17;;;;;;;1.42;0.70;;;23.10;72.70;;;;;;5126231;27;20130;-56
2023/05/14 12:25:50;;;;;;;1.35;0.50;;;23.10;72.70;;;;;;5126648;27;20051;-56
2023/05/14 12:28:17;;;;;;;1.10;0.40;;;23.20;72.70;;;;;;5113950;27;20487;-57
2023/05/14 12:30:46;;;;;;;1.23;0.50;;;23.10;72.60;;;;;;5124894;28;20062;-56
2023/05/14 12:33:13;;;;;;;1.00;0.63;;;23.20;72.70;;;;;;5125744;27;20047;-57
2023/05/14 12:35:41;;;;;;;1.40;0.82;;;23.20;72.70;;;;;;5120428;28;20043;-56
2023/05/14 12:38:08;;;;;;;1.75;0.77;;;23.20;72.70;;;;;;5116144;28;20044;-57
2023/05/14 12:40:35;;;;;;;1.52;0.70;;;23.20;72.70;;;;;;5125988;27;20083;-56
2023/05/14 12:43:03;;;;;;;1.50;0.70;;;23.20;72.60;;;;;;5126546;27;20071;-56
2023/05/14 12:45:30;;;;;;;1.60;1.40;;;23.20;72.70;;;;;;5125903;27;20473;-56
2023/05/14 12:47:59;;;;;;;1.73;0.70;;;23.20;72.70;;;;;;5124546;28;20494;-56
2023/05/14 12:50:26;;;;;;;2.25;1.55;;;23.20;72.70;;;;;;5123507;27;20415;-56
2023/05/14 12:52:53;;;;;;;1.42;0.73;;;23.20;72.70;;;;;;5093197;28;20504;-57